logo
Rechercher aéroport 
image banner adimage banner adimage banner ad
image banner ad

L36 - Rio Linda

Situé à Rio Linda, United States

ICAO - L36, IATA -

Données fournies par Airmate  

Information générale

Coordonnées: N38°40'30" W121°26'44"
Élévation : 46 feet MSL.
Variation magnétique : 16° East
Voir autres Aéroports à California

Données opérationnelles

Special qualification required
Heure actuelle UTC:
Heure actuelle locale:
Météo à : KMCC - Mc Clellan Airfield ( 4 km )
METAR: KMCC 052315Z AUTO 21009KT 10SM CLR 14/07 A2998 RMK AO2
TAF: KMCC 042333Z 0500/0524 19007KT P6SM VCSH BKN030 TEMPO 0512/0515 5SM -RA BR BKN012 OVC020
Voir NOTAMs / SUP AIP / TFR affectant cet aéroport [VIEW]
Fréquences de communication: [VIEW]

Pistes:

Identifiant RWYQFULongueur (ft)Largeur (ft)SurfaceLDA (ft)
17262542ASPH
35262542ASPH

Coordonnées de l'aéroport

Adresse: Rio Linda United States

Vue satellite de L36